Time;durP1;ratioP1;P1;durP2;ratioP2;P2;SDS_P1;SDS_P2;PMS_P1;PMS_P2;Temp;Humidity;BMP_temperature;BMP_pressure;BME280_temperature;BME280_humidity;BME280_pressure;Samples;Min_cycle;Max_cycle;Signal;HPM_P1;HPM_P2
2023/01/12 00:01:04;;;;;;;22.60;2.00;;;;;;;;;;2099104;28;20055;-60
2023/01/12 00:02:04;;;;;;;11.45;1.80;;;;;;;;;;2102261;28;20751;-60
2023/01/12 00:03:05;;;;;;;23.45;2.30;;;;;;;;;;2107482;28;20055;-59
2023/01/12 00:04:05;;;;;;;15.83;1.77;;;;;;;;;;2107353;28;20081;-60
2023/01/12 00:05:05;;;;;;;21.67;2.25;;;;;;;;;;2107351;28;20248;-60
2023/01/12 00:06:08;;;;;;;14.63;1.40;;;;;;;;;;2107364;28;20032;-60
2023/01/12 00:07:09;;;;;;;21.52;2.25;;;;;;;;;;2101771;28;20032;-59
2023/01/12 00:08:10;;;;;;;27.83;2.13;;;;;;;;;;2107274;28;20023;-60
2023/01/12 00:09:10;;;;;;;28.45;2.17;;;;;;;;;;2101790;28;20067;-60
2023/01/12 00:10:10;;;;;;;19.45;2.40;;;;;;;;;;2098749;28;20103;-60
2023/01/12 00:11:10;;;;;;;25.73;2.75;;;;;;;;;;2099004;28;20070;-59
2023/01/12 00:12:11;;;;;;;20.23;2.20;;;;;;;;;;2102887;28;20051;-60
2023/01/12 00:13:11;;;;;;;22.13;2.90;;;;;;;;;;2107616;28;20047;-60
2023/01/12 00:14:12;;;;;;;26.77;2.92;;;;;;;;;;2107256;28;20063;-60
2023/01/12 00:15:12;;;;;;;19.98;2.20;;;;;;;;;;2107503;28;20458;-60
2023/01/12 00:17:32;;;;;;;18.77;2.85;;;;;;;;;;2099066;28;20029;-60
2023/01/12 00:18:32;;;;;;;31.83;3.25;;;;;;;;;;2106158;28;20024;-60
2023/01/12 00:19:32;;;;;;;17.23;2.30;;;;;;;;;;2107489;28;20466;-59
2023/01/12 00:20:33;;;;;;;25.63;3.13;;;;;;;;;;2107282;28;20316;-60
2023/01/12 00:21:37;;;;;;;22.70;2.53;;;;;;;;;;2097663;28;20466;-61
2023/01/12 00:22:37;;;;;;;19.90;2.53;;;;;;;;;;2099539;28;20024;-60
2023/01/12 00:23:38;;;;;;;26.80;3.38;;;;;;;;;;2098999;28;20024;-60
2023/01/12 00:24:39;;;;;;;23.50;2.53;;;;;;;;;;2098365;28;20455;-60
2023/01/12 00:25:39;;;;;;;17.63;2.15;;;;;;;;;;2103808;28;20046;-59
2023/01/12 00:26:40;;;;;;;21.57;2.00;;;;;;;;;;2102353;28;20020;-60
2023/01/12 00:27:40;;;;;;;26.27;3.20;;;;;;;;;;2106440;28;20720;-60
2023/01/12 00:28:40;;;;;;;23.97;2.80;;;;;;;;;;2103008;28;20307;-60
2023/01/12 00:29:40;;;;;;;18.47;2.47;;;;;;;;;;2106376;28;20321;-59
2023/01/12 00:30:40;;;;;;;24.00;2.20;;;;;;;;;;2095521;28;20275;-59
2023/01/12 00:31:40;;;;;;;17.90;2.70;;;;;;;;;;2107267;28;20062;-60
2023/01/12 00:32:41;;;;;;;18.20;2.63;;;;;;;;;;2097023;28;20257;-60
2023/01/12 00:33:41;;;;;;;30.85;3.00;;;;;;;;;;2100095;28;20452;-60
2023/01/12 00:34:41;;;;;;;33.45;3.08;;;;;;;;;;2104200;28;20020;-58
2023/01/12 00:35:41;;;;;;;24.30;2.28;;;;;;;;;;2103677;28;20407;-59
2023/01/12 00:36:42;;;;;;;16.23;2.07;;;;;;;;;;2107154;28;20023;-60
2023/01/12 00:37:43;;;;;;;18.58;2.83;;;;;;;;;;2099316;28;20297;-59
2023/01/12 00:38:43;;;;;;;26.57;2.43;;;;;;;;;;2098687;28;20023;-60
2023/01/12 00:39:43;;;;;;;25.35;2.47;;;;;;;;;;2099505;28;20287;-59
2023/01/12 00:40:43;;;;;;;32.97;2.97;;;;;;;;;;2107206;28;20025;-61
2023/01/12 00:45:41;;;;;;;17.27;2.03;;;;;;;;;;2090565;28;20028;-58
2023/01/12 00:46:41;;;;;;;26.33;2.72;;;;;;;;;;2090560;28;20036;-60
2023/01/12 00:47:41;;;;;;;29.20;3.00;;;;;;;;;;2095046;28;20149;-60
2023/01/12 00:48:42;;;;;;;24.15;2.80;;;;;;;;;;2102454;28;20020;-59
2023/01/12 00:49:42;;;;;;;32.50;3.03;;;;;;;;;;2107103;28;20027;-59
2023/01/12 00:50:45;;;;;;;33.28;3.33;;;;;;;;;;2106476;28;20090;-59
2023/01/12 00:51:45;;;;;;;26.90;2.63;;;;;;;;;;2106432;28;20020;-60
2023/01/12 00:52:45;;;;;;;29.55;3.13;;;;;;;;;;2107245;28;20453;-59
2023/01/12 00:53:45;;;;;;;23.77;2.80;;;;;;;;;;2104226;28;20109;-60
2023/01/12 00:54:45;;;;;;;27.92;3.33;;;;;;;;;;2107126;28;20260;-60
2023/01/12 00:55:46;;;;;;;26.15;2.78;;;;;;;;;;2101549;28;20025;-59
2023/01/12 00:56:46;;;;;;;40.70;3.20;;;;;;;;;;2098920;28;20341;-59
2023/01/12 00:57:46;;;;;;;36.17;4.13;;;;;;;;;;2098682;28;20025;-59
2023/01/12 00:58:47;;;;;;;37.55;3.78;;;;;;;;;;2098523;28;20058;-60
2023/01/12 00:59:47;;;;;;;31.57;3.50;;;;;;;;;;2098021;28;20059;-61
2023/01/12 01:00:47;;;;;;;31.63;3.67;;;;;;;;;;2097935;28;20288;-59
2023/01/12 01:01:47;;;;;;;37.00;4.00;;;;;;;;;;2106406;28;20055;-60
2023/01/12 01:02:48;;;;;;;24.25;3.83;;;;;;;;;;2098788;28;20024;-59
2023/01/12 01:03:48;;;;;;;37.88;4.57;;;;;;;;;;2104894;28;20051;-58
2023/01/12 01:04:48;;;;;;;42.90;4.60;;;;;;;;;;2107128;28;20103;-60
2023/01/12 01:05:48;;;;;;;33.05;4.55;;;;;;;;;;2105413;28;20317;-60
2023/01/12 01:06:49;;;;;;;27.30;3.45;;;;;;;;;;2107105;28;20024;-58
2023/01/12 01:07:49;;;;;;;31.60;3.97;;;;;;;;;;2107102;28;20341;-59
2023/01/12 01:08:49;;;;;;;27.77;3.85;;;;;;;;;;2105104;28;20042;-60
2023/01/12 01:09:50;;;;;;;36.70;4.95;;;;;;;;;;2101399;28;20040;-59
2023/01/12 01:10:59;;;;;;;31.45;3.38;;;;;;;;;;2100432;28;20105;-59
2023/01/12 01:11:59;;;;;;;31.13;3.53;;;;;;;;;;2098465;28;20048;-58
2023/01/12 01:12:59;;;;;;;37.23;4.10;;;;;;;;;;2098636;28;20021;-61
2023/01/12 01:13:59;;;;;;;26.70;3.20;;;;;;;;;;2103896;28;20755;-60
2023/01/12 01:14:59;;;;;;;24.35;3.00;;;;;;;;;;2106891;28;20336;-60
2023/01/12 01:16:00;;;;;;;34.28;3.60;;;;;;;;;;2107184;28;20418;-59
2023/01/12 01:17:00;;;;;;;27.77;6.35;;;;;;;;;;2102090;28;20023;-59
2023/01/12 01:18:00;;;;;;;28.88;3.67;;;;;;;;;;2098417;28;20470;-60
2023/01/12 01:19:03;;;;;;;22.58;3.28;;;;;;;;;;2105848;28;20052;-60
2023/01/12 01:20:03;;;;;;;29.98;4.05;;;;;;;;;;2097705;28;20028;-60
2023/01/12 01:21:04;;;;;;;24.88;3.10;;;;;;;;;;2093178;28;20048;-60
2023/01/12 01:22:04;;;;;;;29.23;3.65;;;;;;;;;;2093839;28;20024;-60
2023/01/12 01:23:04;;;;;;;24.20;3.13;;;;;;;;;;2102433;28;20040;-59
2023/01/12 01:24:08;;;;;;;22.37;3.20;;;;;;;;;;2106483;28;20256;-58
2023/01/12 01:25:09;;;;;;;32.13;3.92;;;;;;;;;;2098520;28;20256;-59
2023/01/12 01:26:12;;;;;;;29.05;4.13;;;;;;;;;;2097012;28;20040;-59
2023/01/12 01:27:12;;;;;;;31.27;4.05;;;;;;;;;;2098586;28;20475;-60
2023/01/12 01:28:13;;;;;;;25.98;3.20;;;;;;;;;;2101158;28;20079;-60
2023/01/12 01:29:13;;;;;;;11.35;2.00;;;;;;;;;;2098537;28;20024;-59
2023/01/12 01:30:14;;;;;;;20.10;2.53;;;;;;;;;;2103692;28;20502;-59
2023/01/12 01:31:21;;;;;;;22.05;3.03;;;;;;;;;;2106992;28;20598;-58
2023/01/12 01:32:21;;;;;;;16.75;2.47;;;;;;;;;;2106951;28;20433;-59
2023/01/12 01:33:21;;;;;;;24.48;3.13;;;;;;;;;;2100920;28;20029;-58
2023/01/12 01:34:22;;;;;;;22.40;3.28;;;;;;;;;;2098242;28;20032;-60
2023/01/12 01:35:22;;;;;;;23.67;2.58;;;;;;;;;;2098633;28;20024;-57
2023/01/12 01:36:23;;;;;;;28.95;3.33;;;;;;;;;;2098580;28;20086;-58
2023/01/12 01:37:23;;;;;;;27.10;3.47;;;;;;;;;;2098516;28;20025;-57
2023/01/12 01:38:23;;;;;;;32.92;4.35;;;;;;;;;;2099217;28;20016;-58
2023/01/12 01:39:23;;;;;;;25.10;2.90;;;;;;;;;;2097963;28;20021;-58
2023/01/12 01:40:24;;;;;;;21.42;2.90;;;;;;;;;;2098738;28;20025;-57
2023/01/12 01:41:24;;;;;;;26.13;2.72;;;;;;;;;;2098904;28;20031;-60
2023/01/12 01:42:27;;;;;;;27.30;3.70;;;;;;;;;;2106933;28;20099;-61
2023/01/12 01:43:28;;;;;;;28.38;3.58;;;;;;;;;;2104848;28;20736;-58
2023/01/12 01:44:28;;;;;;;29.00;3.67;;;;;;;;;;2106862;28;20035;-59
2023/01/12 01:45:28;;;;;;;29.00;3.63;;;;;;;;;;2104461;28;20123;-57
2023/01/12 01:46:37;;;;;;;28.77;3.67;;;;;;;;;;2107039;28;20260;-58
2023/01/12 01:47:47;;;;;;;26.90;3.88;;;;;;;;;;2105628;28;20020;-59
2023/01/12 01:48:47;;;;;;;25.25;3.03;;;;;;;;;;2102920;28;20024;-59
2023/01/12 01:49:50;;;;;;;27.10;3.40;;;;;;;;;;2098525;28;20471;-56
2023/01/12 01:50:52;;;;;;;43.33;5.15;;;;;;;;;;2099240;28;20054;-58
2023/01/12 01:51:53;;;;;;;25.38;4.22;;;;;;;;;;2100064;28;20048;-59
2023/01/12 01:52:56;;;;;;;26.23;4.05;;;;;;;;;;2099367;28;20020;-60
2023/01/12 01:53:56;;;;;;;33.13;3.67;;;;;;;;;;2099989;28;20024;-59
2023/01/12 01:55:02;;;;;;;34.42;4.18;;;;;;;;;;2100078;28;20021;-59
2023/01/12 01:56:04;;;;;;;31.95;3.88;;;;;;;;;;2100984;28;20019;-59
2023/01/12 01:57:05;;;;;;;35.40;4.38;;;;;;;;;;2108509;28;20035;-59
2023/01/12 01:58:11;;;;;;;21.73;3.35;;;;;;;;;;2107622;28;20028;-59
2023/01/12 01:59:18;;;;;;;25.02;3.20;;;;;;;;;;2108704;28;20020;-59
2023/01/12 02:00:19;;;;;;;32.60;3.78;;;;;;;;;;2105923;28;20027;-59
2023/01/12 02:01:19;;;;;;;40.88;4.53;;;;;;;;;;2108677;28;20047;-59
2023/01/12 02:02:20;;;;;;;22.10;3.35;;;;;;;;;;2106405;28;20039;-58
2023/01/12 02:03:21;;;;;;;30.92;4.57;;;;;;;;;;2106291;28;20379;-59
2023/01/12 02:04:21;;;;;;;29.02;3.60;;;;;;;;;;2108387;28;20024;-59
2023/01/12 02:05:23;;;;;;;28.70;3.92;;;;;;;;;;2108338;28;20019;-57
2023/01/12 02:06:24;;;;;;;35.30;4.35;;;;;;;;;;2108330;28;20040;-60
2023/01/12 02:07:25;;;;;;;29.98;3.58;;;;;;;;;;2103280;28;20022;-58
2023/01/12 02:08:44;;;;;;;33.13;4.57;;;;;;;;;;2108397;28;20023;-59
2023/01/12 02:09:44;;;;;;;31.33;4.28;;;;;;;;;;2108531;28;20032;-60
2023/01/12 02:10:44;;;;;;;31.83;2.87;;;;;;;;;;2105678;28;20029;-59
2023/01/12 02:17:13;;;;;;;35.42;3.80;;;;;;;;;;2095129;28;20024;-61
2023/01/12 02:18:18;;;;;;;31.05;4.05;;;;;;;;;;2100057;28;20360;-62
2023/01/12 02:19:33;;;;;;;36.67;4.50;;;;;;;;;;2097750;28;20021;-61
2023/01/12 02:20:49;;;;;;;34.50;4.45;;;;;;;;;;2100820;28;20044;-61
2023/01/12 02:22:08;;;;;;;29.85;3.58;;;;;;;;;;2099903;28;20020;-60
2023/01/12 02:23:08;;;;;;;30.23;4.45;;;;;;;;;;2099880;28;20025;-61
2023/01/12 02:24:11;;;;;;;27.00;4.10;;;;;;;;;;2099884;28;20028;-60
2023/01/12 02:25:30;;;;;;;28.77;3.90;;;;;;;;;;2099600;28;20241;-61
2023/01/12 02:26:40;;;;;;;28.55;3.90;;;;;;;;;;2108255;28;20384;-61
2023/01/12 02:27:40;;;;;;;42.72;4.30;;;;;;;;;;2108127;28;20040;-61
2023/01/12 02:28:50;;;;;;;29.17;3.60;;;;;;;;;;2108245;28;20024;-60
2023/01/12 02:29:59;;;;;;;37.55;4.72;;;;;;;;;;2108033;28;20249;-61
2023/01/12 02:31:02;;;;;;;48.33;4.70;;;;;;;;;;2107425;28;20020;-61
2023/01/12 02:32:08;;;;;;;36.35;4.07;;;;;;;;;;2108054;28;20111;-61
2023/01/12 02:33:27;;;;;;;25.90;3.42;;;;;;;;;;2108181;28;20020;-61
2023/01/12 02:34:33;;;;;;;19.45;3.13;;;;;;;;;;2108294;28;20024;-61
2023/01/12 02:35:48;;;;;;;35.15;4.28;;;;;;;;;;2106528;28;20056;-61
2023/01/12 02:36:48;;;;;;;28.45;4.15;;;;;;;;;;2101479;28;20034;-61
2023/01/12 02:38:18;;;;;;;26.50;3.67;;;;;;;;;;2099844;28;20021;-61
2023/01/12 02:39:20;;;;;;;23.47;3.97;;;;;;;;;;2077963;28;20254;-61
2023/01/12 02:40:24;;;;;;;30.70;4.30;;;;;;;;;;2091028;28;20329;-63
2023/01/12 02:42:39;;;;;;;39.67;5.53;;;;;;;;;;2098811;28;20474;-61
2023/01/12 02:42:53;;;;;;;22.90;3.08;;;;;;;;;;2096593;28;20353;-61
2023/01/12 02:43:53;;;;;;;20.15;3.47;;;;;;;;;;2099597;28;20146;-61
2023/01/12 02:45:05;;;;;;;23.52;2.92;;;;;;;;;;2099981;28;20024;-61
2023/01/12 02:46:12;;;;;;;26.90;3.00;;;;;;;;;;2098281;28;20028;-61
2023/01/12 02:47:16;;;;;;;16.45;3.10;;;;;;;;;;2100747;28;20418;-61
2023/01/12 02:48:20;;;;;;;20.88;3.40;;;;;;;;;;2108021;28;20048;-61
2023/01/12 02:49:22;;;;;;;19.05;3.33;;;;;;;;;;2108100;28;20021;-61
2023/01/12 02:50:42;;;;;;;27.40;3.20;;;;;;;;;;2105444;28;20160;-61
2023/01/12 02:51:46;;;;;;;12.45;2.22;;;;;;;;;;2082159;28;20029;-61
2023/01/12 02:52:52;;;;;;;21.50;2.63;;;;;;;;;;2103900;28;20077;-61
2023/01/12 02:53:54;;;;;;;15.52;2.53;;;;;;;;;;2105028;28;20024;-61
2023/01/12 02:54:56;;;;;;;13.48;2.65;;;;;;;;;;2107946;28;20081;-61
2023/01/12 02:56:02;;;;;;;17.00;2.80;;;;;;;;;;2103875;28;20043;-61
2023/01/12 02:57:04;;;;;;;14.35;2.50;;;;;;;;;;2107849;28;20077;-61
2023/01/12 02:58:05;;;;;;;25.02;2.88;;;;;;;;;;2105079;28;20035;-61
2023/01/12 02:59:25;;;;;;;14.23;2.33;;;;;;;;;;2106371;28;20020;-61
2023/01/12 03:00:26;;;;;;;17.80;3.15;;;;;;;;;;2103166;28;20357;-61
2023/01/12 03:01:27;;;;;;;27.77;3.13;;;;;;;;;;2105032;28;20157;-61
2023/01/12 03:02:28;;;;;;;17.10;3.22;;;;;;;;;;2106741;28;20012;-61
2023/01/12 03:03:28;;;;;;;20.10;3.00;;;;;;;;;;2103393;28;20016;-61
2023/01/12 03:04:30;;;;;;;28.88;3.15;;;;;;;;;;2107635;28;20024;-61
2023/01/12 03:05:30;;;;;;;19.92;3.25;;;;;;;;;;2102939;28;20019;-61
2023/01/12 03:06:49;;;;;;;27.73;3.28;;;;;;;;;;2107758;28;20016;-61
2023/01/12 03:07:52;;;;;;;22.70;3.03;;;;;;;;;;2107935;28;20012;-61
2023/01/12 03:08:53;;;;;;;28.70;3.35;;;;;;;;;;2105507;28;20028;-61
2023/01/12 03:09:56;;;;;;;27.88;3.72;;;;;;;;;;2107005;28;20020;-61
2023/01/12 03:11:13;;;;;;;22.08;2.90;;;;;;;;;;2107889;28;20172;-61
2023/01/12 03:12:17;;;;;;;19.92;2.70;;;;;;;;;;2105371;28;20516;-61
2023/01/12 03:13:18;;;;;;;19.92;3.40;;;;;;;;;;2107807;28;20028;-61
2023/01/12 03:14:21;;;;;;;23.85;3.92;;;;;;;;;;2099407;28;20082;-61
2023/01/12 03:15:23;;;;;;;21.95;2.72;;;;;;;;;;2101261;28;20028;-61
2023/01/12 03:16:25;;;;;;;22.35;2.70;;;;;;;;;;2105387;28;20031;-61
2023/01/12 03:17:37;;;;;;;17.13;3.13;;;;;;;;;;2107233;28;20020;-61
2023/01/12 03:18:40;;;;;;;22.35;2.38;;;;;;;;;;2106830;28;20032;-61
2023/01/12 03:19:42;;;;;;;20.35;3.65;;;;;;;;;;2104660;28;20059;-61
2023/01/12 03:20:46;;;;;;;23.98;3.42;;;;;;;;;;2107873;28;20125;-61
2023/01/12 03:21:46;;;;;;;26.33;3.03;;;;;;;;;;2107791;28;20008;-61
2023/01/12 03:22:47;;;;;;;19.60;3.13;;;;;;;;;;2107820;28;20016;-61
2023/01/12 03:23:51;;;;;;;23.60;4.15;;;;;;;;;;2105516;28;20314;-61
2023/01/12 03:24:55;;;;;;;20.63;3.30;;;;;;;;;;2103582;28;20035;-61
2023/01/12 03:25:56;;;;;;;25.75;3.45;;;;;;;;;;2106090;28;20028;-61
2023/01/12 03:27:06;;;;;;;28.83;5.03;;;;;;;;;;2105568;28;20182;-60
2023/01/12 03:28:07;;;;;;;23.45;4.20;;;;;;;;;;2107696;28;20451;-61
2023/01/12 03:29:11;;;;;;;31.90;4.68;;;;;;;;;;2107968;28;20032;-61
2023/01/12 03:30:19;;;;;;;31.00;3.80;;;;;;;;;;2097893;28;20025;-63
2023/01/12 03:31:20;;;;;;;28.85;3.92;;;;;;;;;;2102405;28;20132;-61
2023/01/12 03:32:21;;;;;;;33.33;3.50;;;;;;;;;;2099271;28;20032;-62
2023/01/12 03:33:21;;;;;;;29.10;3.58;;;;;;;;;;2104257;28;20054;-62
2023/01/12 03:34:22;;;;;;;26.70;3.53;;;;;;;;;;2104974;28;20110;-61
2023/01/12 03:35:25;;;;;;;21.63;3.63;;;;;;;;;;2098778;28;20035;-61
2023/01/12 03:36:44;;;;;;;30.15;4.13;;;;;;;;;;2099261;28;20020;-61
2023/01/12 03:38:05;;;;;;;23.98;3.63;;;;;;;;;;2099175;28;20506;-61
2023/01/12 03:39:11;;;;;;;34.35;4.07;;;;;;;;;;2107725;28;20415;-62
2023/01/12 03:40:11;;;;;;;25.15;3.70;;;;;;;;;;2106032;28;20428;-62
2023/01/12 03:41:18;;;;;;;28.17;4.07;;;;;;;;;;2107543;28;20031;-62
2023/01/12 03:42:30;;;;;;;29.05;3.60;;;;;;;;;;2099105;28;20379;-61
2023/01/12 03:43:33;;;;;;;33.10;4.57;;;;;;;;;;2099276;28;20013;-62
2023/01/12 03:44:43;;;;;;;31.00;4.00;;;;;;;;;;2100095;28;20070;-62
2023/01/12 03:45:47;;;;;;;26.55;4.80;;;;;;;;;;2105601;28;20028;-62
2023/01/12 03:46:52;;;;;;;21.88;3.65;;;;;;;;;;2106514;28;20486;-62
2023/01/12 03:48:00;;;;;;;28.10;3.70;;;;;;;;;;2107690;28;20459;-62
2023/01/12 03:49:20;;;;;;;25.30;4.05;;;;;;;;;;2105384;28;20039;-60
2023/01/12 03:50:24;;;;;;;25.00;4.13;;;;;;;;;;2103624;28;20035;-61
2023/01/12 03:51:26;;;;;;;36.13;4.13;;;;;;;;;;2107593;28;20568;-61
2023/01/12 03:52:27;;;;;;;27.05;3.72;;;;;;;;;;2105361;28;20438;-61
2023/01/12 03:53:29;;;;;;;32.25;4.38;;;;;;;;;;2107654;28;20107;-61
2023/01/12 03:54:29;;;;;;;31.17;4.13;;;;;;;;;;2102754;28;20036;-62
2023/01/12 03:55:31;;;;;;;23.35;3.58;;;;;;;;;;2107615;28;20103;-61
2023/01/12 03:56:34;;;;;;;23.85;3.47;;;;;;;;;;2105472;28;20030;-61
2023/01/12 03:57:35;;;;;;;35.03;4.00;;;;;;;;;;2107469;28;20020;-62
2023/01/12 03:58:35;;;;;;;29.33;3.72;;;;;;;;;;2107377;28;20099;-61
2023/01/12 03:59:35;;;;;;;25.80;4.00;;;;;;;;;;2104647;28;20020;-62
2023/01/12 04:00:36;;;;;;;26.20;4.60;;;;;;;;;;2106778;28;20020;-61
2023/01/12 04:01:37;;;;;;;17.75;3.05;;;;;;;;;;2107309;28;20016;-62
2023/01/12 04:02:37;;;;;;;31.02;4.07;;;;;;;;;;2107465;28;20023;-61
2023/01/12 04:03:37;;;;;;;30.25;3.72;;;;;;;;;;2102347;28;20827;-61
2023/01/12 04:04:37;;;;;;;28.30;3.92;;;;;;;;;;2105986;28;20028;-61
2023/01/12 04:05:38;;;;;;;28.13;4.65;;;;;;;;;;2106700;28;20023;-62
2023/01/12 04:06:38;;;;;;;28.30;3.65;;;;;;;;;;2098263;28;20483;-61
2023/01/12 04:07:38;;;;;;;24.45;3.25;;;;;;;;;;2104640;28;20031;-61
2023/01/12 04:08:39;;;;;;;28.47;3.47;;;;;;;;;;2107240;28;20402;-62
2023/01/12 04:09:39;;;;;;;26.20;3.67;;;;;;;;;;2102385;28;20265;-62
2023/01/12 04:10:39;;;;;;;31.00;4.47;;;;;;;;;;2105484;28;20448;-62
2023/01/12 04:12:58;;;;;;;24.10;3.35;;;;;;;;;;2099610;28;20024;-62
2023/01/12 04:13:58;;;;;;;31.55;3.88;;;;;;;;;;2098758;28;20033;-62
2023/01/12 04:14:58;;;;;;;25.58;3.38;;;;;;;;;;2105324;28;20032;-61
2023/01/12 04:15:58;;;;;;;29.63;3.30;;;;;;;;;;2107307;28;20074;-61
2023/01/12 04:16:58;;;;;;;27.87;4.03;;;;;;;;;;2106817;28;20031;-61
2023/01/12 04:17:59;;;;;;;27.10;3.83;;;;;;;;;;2104647;28;20249;-62
2023/01/12 04:18:59;;;;;;;29.90;4.00;;;;;;;;;;2105476;28;20241;-62
2023/01/12 04:19:59;;;;;;;24.90;4.00;;;;;;;;;;2107297;28;20276;-62
2023/01/12 04:20:59;;;;;;;24.90;3.30;;;;;;;;;;2107384;28;20245;-62
2023/01/12 04:23:18;;;;;;;31.85;3.90;;;;;;;;;;2099037;28;20230;-61
2023/01/12 04:24:18;;;;;;;26.13;3.92;;;;;;;;;;2101541;28;20024;-62
2023/01/12 04:25:19;;;;;;;34.15;4.55;;;;;;;;;;2105334;28;20474;-62
2023/01/12 04:26:20;;;;;;;30.08;3.70;;;;;;;;;;2107145;28;20028;-61
2023/01/12 04:27:20;;;;;;;21.52;2.92;;;;;;;;;;2107318;28;20436;-62
2023/01/12 04:28:20;;;;;;;32.08;3.75;;;;;;;;;;2106560;28;20020;-61
2023/01/12 04:29:20;;;;;;;27.77;3.22;;;;;;;;;;2103460;28;20035;-62
2023/01/12 04:30:23;;;;;;;24.35;3.58;;;;;;;;;;2107205;28;20094;-62
2023/01/12 04:31:23;;;;;;;25.08;3.13;;;;;;;;;;2107279;28;20031;-61
2023/01/12 04:32:24;;;;;;;21.20;3.40;;;;;;;;;;2107248;28;20047;-61
2023/01/12 04:33:24;;;;;;;24.33;2.75;;;;;;;;;;2104250;28;20027;-61
2023/01/12 04:34:24;;;;;;;32.23;3.40;;;;;;;;;;2106150;28;20062;-61
2023/01/12 04:35:24;;;;;;;29.20;2.97;;;;;;;;;;2107228;28;20767;-61
2023/01/12 04:36:24;;;;;;;27.00;3.95;;;;;;;;;;2103498;28;20020;-62
2023/01/12 04:37:25;;;;;;;28.80;3.38;;;;;;;;;;2107012;28;20044;-61
2023/01/12 04:38:25;;;;;;;20.98;3.80;;;;;;;;;;2105589;28;20089;-61
2023/01/12 04:39:25;;;;;;;25.80;3.33;;;;;;;;;;2105197;28;20040;-61
2023/01/12 04:40:25;;;;;;;26.70;3.47;;;;;;;;;;2105146;28;20253;-61
2023/01/12 04:41:25;;;;;;;33.72;3.95;;;;;;;;;;2107205;28;20020;-61
2023/01/12 04:43:45;;;;;;;28.00;3.55;;;;;;;;;;2104179;28;20643;-61
2023/01/12 04:44:45;;;;;;;27.02;3.80;;;;;;;;;;2107077;28;20048;-62
2023/01/12 04:45:46;;;;;;;28.87;3.27;;;;;;;;;;2107321;28;20024;-62
2023/01/12 04:46:47;;;;;;;25.70;3.75;;;;;;;;;;2107182;28;20248;-61
2023/01/12 04:47:47;;;;;;;25.05;3.53;;;;;;;;;;2105199;28;20099;-61
2023/01/12 04:48:47;;;;;;;24.58;4.00;;;;;;;;;;2105649;28;20051;-61
2023/01/12 04:49:47;;;;;;;31.48;3.92;;;;;;;;;;2107186;28;20078;-61
2023/01/12 04:50:49;;;;;;;32.90;3.72;;;;;;;;;;2107179;28;20087;-62
2023/01/12 04:51:49;;;;;;;35.63;4.10;;;;;;;;;;2104973;28;20382;-61
2023/01/12 04:52:49;;;;;;;21.90;3.80;;;;;;;;;;2107102;28;20020;-61
2023/01/12 04:53:50;;;;;;;30.27;3.67;;;;;;;;;;2103507;28;20751;-61
2023/01/12 04:54:50;;;;;;;28.52;3.08;;;;;;;;;;2104949;28;20245;-61
2023/01/12 04:55:50;;;;;;;24.53;3.70;;;;;;;;;;2107109;28;20452;-62
2023/01/12 04:56:50;;;;;;;22.87;2.90;;;;;;;;;;2107270;28;20262;-62
2023/01/12 04:57:51;;;;;;;40.30;5.70;;;;;;;;;;2107026;28;20252;-62
2023/01/12 04:58:59;;;;;;;31.48;4.03;;;;;;;;;;2102389;28;20260;-61
2023/01/12 04:59:59;;;;;;;26.05;3.92;;;;;;;;;;2107064;28;20020;-61
2023/01/12 05:01:09;;;;;;;26.55;3.47;;;;;;;;;;2107239;28;20020;-62
2023/01/12 05:02:09;;;;;;;23.42;2.95;;;;;;;;;;2105078;28;20016;-61
2023/01/12 05:03:10;;;;;;;27.83;3.78;;;;;;;;;;2105410;28;20028;-62
2023/01/12 05:04:10;;;;;;;20.50;2.92;;;;;;;;;;2107039;28;20454;-61
2023/01/12 05:05:11;;;;;;;25.13;3.90;;;;;;;;;;2107257;28;20054;-61
2023/01/12 05:06:11;;;;;;;19.63;3.28;;;;;;;;;;2104837;28;20367;-61
2023/01/12 05:07:11;;;;;;;38.88;4.35;;;;;;;;;;2107228;28;20016;-61
2023/01/12 05:10:50;;;;;;;33.83;4.15;;;;;;;;;;2107086;28;20394;-61
2023/01/12 05:11:50;;;;;;;23.65;3.53;;;;;;;;;;2101529;28;20048;-61
2023/01/12 05:12:50;;;;;;;26.40;3.37;;;;;;;;;;2098662;28;20021;-62
2023/01/12 05:13:50;;;;;;;30.13;3.50;;;;;;;;;;2104947;28;20337;-61
2023/01/12 05:14:50;;;;;;;22.37;2.87;;;;;;;;;;2106958;28;20256;-61
2023/01/12 05:15:50;;;;;;;23.48;4.05;;;;;;;;;;2106986;28;20248;-61
2023/01/12 05:16:51;;;;;;;20.50;3.38;;;;;;;;;;2105090;28;20149;-61
2023/01/12 05:17:53;;;;;;;21.75;3.13;;;;;;;;;;2106785;28;20113;-62
2023/01/12 05:18:53;;;;;;;27.35;4.47;;;;;;;;;;2106891;28;20115;-61
2023/01/12 05:19:53;;;;;;;26.77;3.22;;;;;;;;;;2107061;28;20447;-61
2023/01/12 05:20:55;;;;;;;29.55;3.40;;;;;;;;;;2104716;28;20033;-61
2023/01/12 05:21:55;;;;;;;16.40;2.95;;;;;;;;;;2106997;28;20032;-61
2023/01/12 05:22:55;;;;;;;22.10;2.87;;;;;;;;;;2105632;28;20028;-61
2023/01/12 05:23:55;;;;;;;28.37;4.10;;;;;;;;;;2103944;28;20310;-61
2023/01/12 05:24:56;;;;;;;22.33;3.63;;;;;;;;;;2102922;28;20298;-61
2023/01/12 05:25:59;;;;;;;17.23;2.72;;;;;;;;;;2108180;28;20032;-62
2023/01/12 05:27:00;;;;;;;20.30;2.53;;;;;;;;;;2108645;28;20371;-61
2023/01/12 05:28:00;;;;;;;35.08;3.10;;;;;;;;;;2105617;28;20027;-61
2023/01/12 05:29:00;;;;;;;21.80;3.23;;;;;;;;;;2107986;28;20019;-61
2023/01/12 05:30:00;;;;;;;32.97;3.83;;;;;;;;;;2108717;28;20727;-61
2023/01/12 05:31:08;;;;;;;26.52;3.97;;;;;;;;;;2108646;28;20100;-61
2023/01/12 05:32:08;;;;;;;22.45;2.92;;;;;;;;;;2106813;28;20024;-61
2023/01/12 05:33:14;;;;;;;22.03;2.80;;;;;;;;;;2105070;28;20046;-61
2023/01/12 05:34:18;;;;;;;24.35;3.40;;;;;;;;;;2108765;28;20312;-61
2023/01/12 05:35:18;;;;;;;24.17;2.90;;;;;;;;;;2105606;28;20020;-61
2023/01/12 05:36:19;;;;;;;19.77;2.92;;;;;;;;;;2108777;28;20493;-61
2023/01/12 05:37:19;;;;;;;15.25;2.90;;;;;;;;;;2108493;28;20459;-61
2023/01/12 05:38:19;;;;;;;20.63;2.97;;;;;;;;;;2107659;28;20024;-61
2023/01/12 05:39:20;;;;;;;29.58;3.28;;;;;;;;;;2106549;28;20028;-61
2023/01/12 05:40:20;;;;;;;21.90;2.92;;;;;;;;;;2108749;28;20016;-61
2023/01/12 05:41:21;;;;;;;18.30;2.97;;;;;;;;;;2108493;28;20443;-61
2023/01/12 05:43:50;;;;;;;15.90;2.72;;;;;;;;;;2107520;28;20447;-61
2023/01/12 05:44:50;;;;;;;19.90;3.22;;;;;;;;;;2108843;28;20022;-62
2023/01/12 05:45:50;;;;;;;21.85;3.15;;;;;;;;;;2108557;28;20019;-62
2023/01/12 05:46:50;;;;;;;23.48;3.35;;;;;;;;;;2106983;28;20044;-61
2023/01/12 05:47:58;;;;;;;22.25;2.97;;;;;;;;;;2103607;28;20045;-62
2023/01/12 05:48:58;;;;;;;22.65;3.10;;;;;;;;;;2108555;28;20012;-62
2023/01/12 05:49:58;;;;;;;21.83;3.37;;;;;;;;;;2105343;28;20040;-61
2023/01/12 05:50:59;;;;;;;15.68;2.78;;;;;;;;;;2108570;28;20262;-62
2023/01/12 05:51:59;;;;;;;23.10;2.83;;;;;;;;;;2106794;28;20015;-62
2023/01/12 05:52:59;;;;;;;23.20;2.83;;;;;;;;;;2106976;28;20031;-62
2023/01/12 05:54:01;;;;;;;13.98;2.88;;;;;;;;;;2105409;28;20020;-61
2023/01/12 05:55:02;;;;;;;24.70;2.78;;;;;;;;;;2108626;28;20024;-61
2023/01/12 05:56:07;;;;;;;23.58;3.30;;;;;;;;;;2108385;28;20032;-61
2023/01/12 05:57:07;;;;;;;16.88;3.25;;;;;;;;;;2105761;28;20027;-61
2023/01/12 05:58:07;;;;;;;17.77;3.20;;;;;;;;;;2105318;28;20543;-61
2023/01/12 05:59:09;;;;;;;16.42;2.90;;;;;;;;;;2108568;28;20595;-61
2023/01/12 06:00:09;;;;;;;19.63;2.90;;;;;;;;;;2108415;28;20467;-61
2023/01/12 06:01:09;;;;;;;25.25;3.35;;;;;;;;;;2105562;28;20028;-61
2023/01/12 06:02:12;;;;;;;25.40;4.93;;;;;;;;;;2105160;28;20356;-62
2023/01/12 06:03:12;;;;;;;21.90;3.50;;;;;;;;;;2105583;28;20028;-61
2023/01/12 06:04:12;;;;;;;17.75;2.67;;;;;;;;;;2107711;28;20413;-62
2023/01/12 06:05:13;;;;;;;19.60;3.47;;;;;;;;;;2107468;28;20024;-62
2023/01/12 06:06:13;;;;;;;24.58;3.55;;;;;;;;;;2108334;28;20081;-62
2023/01/12 06:07:14;;;;;;;18.90;2.57;;;;;;;;;;2102995;28;20383;-62
2023/01/12 06:08:14;;;;;;;21.45;3.05;;;;;;;;;;2104711;28;20263;-61
2023/01/12 06:09:14;;;;;;;17.02;2.90;;;;;;;;;;2099209;28;20047;-61
2023/01/12 06:10:14;;;;;;;18.52;2.88;;;;;;;;;;2099287;28;20024;-61
2023/01/12 06:13:58;;;;;;;18.65;2.95;;;;;;;;;;2108445;28;20390;-60
2023/01/12 06:14:58;;;;;;;14.52;2.67;;;;;;;;;;2108337;28;20051;-61
2023/01/12 06:16:03;;;;;;;23.35;3.35;;;;;;;;;;2106389;28;20078;-62
2023/01/12 06:17:03;;;;;;;21.50;3.47;;;;;;;;;;2104564;28;20420;-62
2023/01/12 06:18:04;;;;;;;19.10;3.03;;;;;;;;;;2106600;28;20039;-62
2023/01/12 06:19:04;;;;;;;20.92;3.10;;;;;;;;;;2108116;28;20047;-62
2023/01/12 06:20:05;;;;;;;25.30;4.13;;;;;;;;;;2108302;28;20162;-61
2023/01/12 06:21:06;;;;;;;13.15;2.53;;;;;;;;;;2102725;28;20265;-62
2023/01/12 06:22:06;;;;;;;17.15;3.28;;;;;;;;;;2104192;28;20441;-62
2023/01/12 06:23:07;;;;;;;21.02;3.33;;;;;;;;;;2100743;28;20021;-61
2023/01/12 06:24:07;;;;;;;17.48;3.45;;;;;;;;;;2105714;28;20028;-62
2023/01/12 06:25:07;;;;;;;21.83;3.35;;;;;;;;;;2107588;28;20027;-61
2023/01/12 06:26:08;;;;;;;18.52;3.50;;;;;;;;;;2108460;28;20031;-62
2023/01/12 06:27:08;;;;;;;20.35;3.53;;;;;;;;;;2105175;28;20439;-61
2023/01/12 06:28:08;;;;;;;19.67;3.45;;;;;;;;;;2101482;28;20443;-61
2023/01/12 06:29:08;;;;;;;21.83;3.70;;;;;;;;;;2104756;28;20020;-62
2023/01/12 06:30:09;;;;;;;16.80;3.20;;;;;;;;;;2108364;28;20416;-62